createdAt,value
2022-11-27T00:00:12.090Z,78.40
2022-11-27T00:05:17.380Z,78.54
2022-11-27T00:10:19.631Z,78.75
2022-11-27T00:15:22.827Z,78.61
2022-11-27T00:20:29.518Z,78.67
2022-11-27T00:25:32.018Z,78.71
2022-11-27T00:30:34.199Z,78.86
2022-11-27T00:35:36.408Z,78.46
2022-11-27T00:40:38.599Z,78.51
2022-11-27T00:45:40.849Z,78.47
2022-11-27T00:50:43.102Z,78.80
2022-11-27T00:55:47.019Z,78.84
2022-11-27T01:01:00.291Z,78.93
2022-11-27T01:06:07.052Z,78.98
2022-11-27T01:11:14.948Z,78.61
2022-11-27T01:16:19.894Z,78.57
2022-11-27T01:21:22.552Z,78.75
2022-11-27T01:26:25.342Z,78.82
2022-11-27T01:31:29.685Z,78.67
2022-11-27T01:36:33.526Z,79.24
2022-11-27T01:41:40.046Z,79.07
2022-11-27T01:46:44.666Z,79.01
2022-11-27T01:51:52.947Z,79.23
2022-11-27T01:57:00.053Z,79.03
2022-11-27T02:02:03.685Z,79.16
2022-11-27T02:07:06.453Z,79.06
2022-11-27T02:12:25.489Z,79.19
2022-11-27T02:18:18.376Z,79.18
2022-11-27T02:23:42.480Z,79.36
2022-11-27T02:29:04.146Z,79.22
2022-11-27T02:34:35.310Z,79.60
2022-11-27T02:39:47.629Z,79.29
2022-11-27T02:45:22.963Z,79.60
2022-11-27T02:50:26.751Z,79.48
2022-11-27T02:55:33.739Z,79.24
2022-11-27T03:00:36.579Z,79.44
2022-11-27T03:05:42.950Z,79.78
2022-11-27T03:11:06.748Z,79.67
2022-11-27T03:16:39.984Z,79.72
2022-11-27T03:21:45.765Z,79.57
2022-11-27T03:26:48.279Z,79.52
2022-11-27T03:31:50.691Z,79.69
2022-11-27T03:36:52.915Z,79.80
2022-11-27T03:42:00.995Z,79.83
2022-11-27T03:47:40.956Z,80.12
2022-11-27T03:52:52.318Z,79.95
2022-11-27T03:58:00.929Z,79.97
2022-11-27T04:03:04.446Z,79.95
2022-11-27T04:08:06.839Z,79.99
2022-11-27T04:13:09.336Z,80.10
2022-11-27T04:18:11.814Z,79.68
2022-11-27T04:23:14.036Z,79.70
2022-11-27T04:28:17.897Z,79.30
2022-11-27T04:33:20.822Z,80.03
2022-11-27T04:38:24.128Z,80.00
2022-11-27T04:43:26.447Z,79.99
2022-11-27T04:48:28.717Z,79.99
2022-11-27T04:53:31.008Z,79.80
2022-11-27T04:58:33.262Z,79.43
2022-11-27T05:03:36.022Z,79.83
2022-11-27T05:08:38.356Z,79.86
2022-11-27T05:13:40.982Z,80.15
2022-11-27T05:18:43.238Z,79.99
2022-11-27T05:23:45.475Z,79.97
2022-11-27T05:28:47.664Z,79.83
2022-11-27T05:33:49.951Z,80.00
2022-11-27T05:38:52.399Z,80.05
2022-11-27T05:43:54.691Z,80.20
2022-11-27T05:48:57.142Z,80.24
2022-11-27T05:53:59.399Z,80.26
2022-11-27T05:59:01.714Z,80.17
2022-11-27T06:04:04.121Z,80.15
2022-11-27T06:09:12.170Z,80.50
2022-11-27T06:14:15.345Z,80.40
2022-11-27T06:19:17.636Z,79.97
2022-11-27T06:24:20.644Z,80.64
2022-11-27T06:29:23.043Z,80.46
2022-11-27T06:34:25.356Z,80.47
2022-11-27T06:39:27.696Z,80.72
2022-11-27T06:44:30.119Z,81.03
2022-11-27T06:49:32.400Z,80.97
2022-11-27T06:54:34.668Z,81.21
2022-11-27T06:59:36.961Z,81.38
2022-11-27T07:04:39.522Z,81.48
2022-11-27T07:09:42.071Z,81.78
2022-11-27T07:14:44.348Z,81.85
2022-11-27T07:19:47.336Z,81.51
2022-11-27T07:24:49.562Z,81.32
2022-11-27T07:29:51.831Z,81.50
2022-11-27T07:34:54.100Z,82.23
2022-11-27T07:40:03.840Z,82.08
2022-11-27T07:45:08.496Z,81.89
2022-11-27T07:50:11.434Z,81.91
2022-11-27T07:55:13.778Z,81.94
2022-11-27T08:00:16.649Z,82.10
2022-11-27T08:05:19.187Z,82.32
2022-11-27T08:10:21.587Z,81.81
2022-11-27T08:15:23.985Z,82.01
2022-11-27T08:20:26.711Z,81.99
2022-11-27T08:25:29.062Z,81.73
2022-11-27T08:30:31.353Z,82.22
2022-11-27T08:35:33.783Z,82.38
2022-11-27T08:40:36.456Z,82.37
2022-11-27T08:45:39.749Z,82.19
2022-11-27T08:50:42.981Z,82.33
2022-11-27T08:55:45.421Z,82.23
2022-11-27T09:00:47.665Z,82.50
2022-11-27T09:05:49.910Z,82.55
2022-11-27T09:10:52.163Z,81.93
2022-11-27T09:15:56.924Z,82.77
2022-11-27T09:21:02.367Z,82.79
2022-11-27T09:26:08.636Z,82.64
2022-11-27T09:31:13.074Z,82.42
2022-11-27T09:36:23.866Z,82.60
2022-11-27T09:41:38.965Z,82.86
2022-11-27T09:46:42.676Z,82.43
2022-11-27T09:51:50.816Z,82.66
2022-11-27T09:56:55.967Z,82.51
2022-11-27T10:01:58.355Z,82.33
2022-11-27T10:07:35.427Z,82.95
2022-11-27T10:13:15.795Z,82.95
2022-11-27T10:18:35.637Z,82.81
2022-11-27T10:23:43.846Z,82.70
2022-11-27T10:28:55.000Z,82.05
2022-11-27T10:34:01.588Z,82.34
2022-11-27T10:39:07.230Z,82.29
2022-11-27T10:44:30.530Z,82.36
2022-11-27T10:49:33.205Z,82.14
2022-11-27T10:54:37.971Z,82.42
2022-11-27T11:00:03.958Z,82.43
2022-11-27T11:10:53.682Z,82.24
2022-11-27T11:16:04.905Z,82.08
2022-11-27T11:21:08.083Z,82.08
2022-11-27T11:26:26.128Z,81.92
2022-11-27T11:31:34.423Z,81.69
2022-11-27T11:36:36.631Z,81.85
2022-11-27T11:41:39.344Z,81.54
2022-11-27T11:46:41.560Z,81.55
2022-11-27T11:52:14.225Z,81.54
2022-11-27T11:57:22.595Z,81.29
2022-11-27T12:02:43.097Z,81.04
2022-11-27T12:08:20.649Z,80.84
2022-11-27T12:13:45.003Z,80.91
2022-11-27T12:19:05.685Z,80.86
2022-11-27T12:24:23.145Z,80.87
2022-11-27T12:29:32.186Z,80.77
2022-11-27T12:34:59.316Z,80.82
2022-11-27T12:40:13.298Z,80.72
2022-11-27T12:45:24.737Z,80.63
2022-11-27T12:50:44.715Z,80.57
2022-11-27T12:55:57.503Z,80.37
2022-11-27T13:01:07.628Z,80.16
2022-11-27T13:06:16.945Z,80.03
2022-11-27T13:11:20.841Z,80.29
2022-11-27T13:16:32.246Z,80.36
2022-11-27T13:21:35.521Z,79.95
2022-11-27T13:26:49.471Z,80.07
2022-11-27T13:31:56.443Z,80.13
2022-11-27T13:37:01.959Z,80.10
2022-11-27T13:42:13.178Z,79.99
2022-11-27T13:47:17.832Z,80.32
2022-11-27T13:52:21.442Z,79.87
2022-11-27T13:57:24.088Z,79.98
2022-11-27T14:02:39.533Z,80.14
2022-11-27T14:07:48.226Z,80.15
2022-11-27T14:13:03.729Z,80.24
2022-11-27T14:18:09.635Z,80.15
2022-11-27T14:23:13.479Z,79.72
2022-11-27T14:28:21.609Z,80.12
2022-11-27T14:33:33.284Z,80.29
2022-11-27T14:38:40.994Z,79.96
2022-11-27T14:43:43.182Z,80.22
2022-11-27T14:48:51.107Z,80.38
2022-11-27T14:54:15.562Z,80.08
2022-11-27T14:59:19.892Z,80.35
2022-11-27T15:04:36.118Z,80.53
2022-11-27T15:09:38.347Z,80.46
2022-11-27T15:14:46.058Z,80.38
2022-11-27T15:19:48.384Z,80.38
2022-11-27T15:25:01.967Z,80.58
2022-11-27T15:30:08.389Z,80.33
2022-11-27T15:35:15.585Z,80.46
2022-11-27T15:40:28.920Z,80.14
2022-11-27T15:45:32.294Z,80.45
2022-11-27T15:50:34.525Z,80.03
2022-11-27T15:55:37.085Z,80.05
2022-11-27T16:00:40.822Z,80.19
2022-11-27T16:05:43.121Z,80.14
2022-11-27T16:10:48.164Z,80.02
2022-11-27T16:15:50.287Z,79.86
2022-11-27T16:20:55.297Z,79.84
2022-11-27T16:25:57.565Z,80.11
2022-11-27T16:31:01.647Z,80.19
2022-11-27T16:36:09.383Z,80.05
2022-11-27T16:41:14.592Z,79.97
2022-11-27T16:46:23.655Z,80.24
2022-11-27T16:51:34.359Z,80.09
2022-11-27T16:56:38.811Z,80.08
2022-11-27T17:01:42.601Z,79.86
2022-11-27T17:06:45.697Z,79.75
2022-11-27T17:11:48.992Z,79.86
2022-11-27T17:16:52.022Z,79.52
2022-11-27T17:21:54.522Z,79.63
2022-11-27T17:26:56.929Z,79.81
2022-11-27T17:32:07.435Z,79.76
2022-11-27T17:37:09.730Z,79.95
2022-11-27T17:42:15.344Z,79.98
2022-11-27T17:47:20.645Z,79.37
2022-11-27T17:52:22.934Z,79.74
2022-11-27T17:57:25.788Z,79.83
2022-11-27T18:02:28.144Z,79.62
2022-11-27T18:07:30.391Z,79.94
2022-11-27T18:12:32.593Z,80.17
2022-11-27T18:17:34.893Z,80.11
2022-11-27T18:22:37.037Z,79.83
2022-11-27T18:27:39.364Z,80.00
2022-11-27T18:32:41.649Z,79.78
2022-11-27T18:37:43.891Z,79.79
2022-11-27T18:42:46.066Z,79.93
2022-11-27T18:47:48.278Z,79.62
2022-11-27T18:52:50.675Z,79.99
2022-11-27T18:57:53.377Z,79.95
2022-11-27T19:02:56.463Z,79.90
2022-11-27T19:08:01.969Z,79.95
2022-11-27T19:13:04.219Z,80.04
2022-11-27T19:18:06.546Z,80.08
2022-11-27T19:23:08.921Z,79.80
2022-11-27T19:28:12.163Z,79.96
2022-11-27T19:33:14.504Z,79.99
2022-11-27T19:38:16.935Z,79.61
2022-11-27T19:43:19.306Z,80.03
2022-11-27T19:48:23.498Z,80.04
2022-11-27T19:53:26.849Z,80.10
2022-11-27T19:58:29.054Z,79.76
2022-11-27T20:03:33.309Z,79.88
2022-11-27T20:08:35.957Z,80.03
2022-11-27T20:13:38.512Z,80.17
2022-11-27T20:18:41.598Z,79.60
2022-11-27T20:23:44.633Z,79.88
2022-11-27T20:28:47.341Z,79.98
2022-11-27T20:33:52.413Z,80.14
2022-11-27T20:38:58.002Z,80.15
2022-11-27T20:44:02.315Z,80.00
2022-11-27T20:49:05.776Z,79.80
2022-11-27T20:54:08.606Z,80.24
2022-11-27T20:59:12.635Z,80.27
2022-11-27T21:04:21.263Z,80.33
2022-11-27T21:09:24.152Z,80.16
2022-11-27T21:14:27.263Z,80.22
2022-11-27T21:19:29.486Z,80.22
2022-11-27T21:24:32.018Z,80.23
2022-11-27T21:29:34.202Z,80.16
2022-11-27T21:34:36.401Z,80.19
2022-11-27T21:39:38.866Z,80.04
2022-11-27T21:44:42.363Z,80.23
2022-11-27T21:49:45.342Z,80.41
2022-11-27T21:54:48.313Z,80.00
2022-11-27T21:59:53.895Z,79.96
2022-11-27T22:04:56.092Z,80.12
2022-11-27T22:09:58.235Z,80.43
2022-11-27T22:15:00.432Z,80.57
2022-11-27T22:20:02.621Z,80.48
2022-11-27T22:25:05.898Z,80.39
2022-11-27T22:30:08.798Z,80.59
2022-11-27T22:35:11.171Z,80.50
2022-11-27T22:40:13.843Z,80.62
2022-11-27T22:45:16.071Z,80.73
2022-11-27T22:50:18.413Z,80.67
2022-11-27T22:55:20.607Z,80.58
2022-11-27T23:00:23.586Z,80.77
2022-11-27T23:05:25.803Z,80.95
2022-11-27T23:10:28.460Z,80.83
2022-11-27T23:15:30.857Z,81.02
2022-11-27T23:20:33.362Z,80.78
2022-11-27T23:25:35.619Z,81.03
2022-11-27T23:30:37.866Z,80.77
2022-11-27T23:35:40.004Z,80.84
2022-11-27T23:40:42.139Z,80.61
2022-11-27T23:45:44.310Z,80.87
2022-11-27T23:50:46.475Z,80.97
2022-11-27T23:55:48.576Z,80.99
